Time;durP1;ratioP1;P1;durP2;ratioP2;P2;SDS_P1;SDS_P2;PMS_P1;PMS_P2;Temp;Humidity;BMP_temperature;BMP_pressure;BME280_temperature;BME280_humidity;BME280_pressure;Samples;Min_cycle;Max_cycle;Signal;HPM_P1;HPM_P2
2022/12/02 08:55:21;;;;;;;33.42;22.30;;;;;;;5.68;nan;99758.66;5995816;23;20313;-89
2022/12/02 08:57:47;;;;;;;30.67;16.23;;;;;;;5.70;nan;99746.41;6002698;23;20260;-89
2022/12/02 09:00:17;;;;;;;36.40;19.37;;;;;;;5.74;nan;99747.97;6006934;23;20655;-89
2022/12/02 09:03:14;;;;;;;30.38;16.45;;;;;;;5.76;nan;99751.34;6018970;23;20858;-91
2022/12/02 09:05:43;;;;;;;33.55;16.10;;;;;;;5.76;nan;99744.38;6010424;23;20181;-90
2022/12/02 09:08:13;;;;;;;35.58;19.08;;;;;;;5.79;nan;99750.38;6011881;23;20637;-91
2022/12/02 09:10:45;;;;;;;32.47;15.73;;;;;;;5.79;nan;99740.78;6043853;23;20186;-90
2022/12/02 09:13:20;;;;;;;34.50;17.20;;;;;;;5.81;nan;99735.53;6032048;23;20528;-90
2022/12/02 09:15:58;;;;;;;31.15;16.45;;;;;;;5.83;nan;99744.97;6019999;23;20193;-89
2022/12/02 09:18:27;;;;;;;33.28;18.70;;;;;;;5.85;nan;99744.91;6015600;23;20173;-89
2022/12/02 09:21:00;;;;;;;34.95;18.48;;;;;;;5.85;nan;99740.53;5989012;23;20228;-89
2022/12/02 09:23:29;;;;;;;41.40;21.52;;;;;;;5.87;nan;99743.94;6010277;23;20186;-89
2022/12/02 09:25:58;;;;;;;29.58;18.70;;;;;;;5.88;nan;99735.19;6008554;23;20182;-90
2022/12/02 09:28:27;;;;;;;36.80;20.35;;;;;;;5.86;nan;99730.94;5984933;23;20241;-90
2022/12/02 09:30:52;;;;;;;34.23;17.57;;;;;;;5.86;nan;99741.38;6028099;23;20611;-90
2022/12/02 09:33:18;;;;;;;33.47;18.67;;;;;;;5.85;nan;99732.72;6010092;23;20526;-89
2022/12/02 09:35:46;;;;;;;37.73;19.00;;;;;;;5.88;nan;99735.19;6011712;23;20205;-91
2022/12/02 09:38:20;;;;;;;37.28;17.95;;;;;;;5.90;nan;99728.16;5984326;23;20457;-90
2022/12/02 09:40:48;;;;;;;35.75;17.83;;;;;;;5.92;nan;99728.94;6011450;23;20261;-91
2022/12/02 09:43:14;;;;;;;39.97;17.83;;;;;;;5.93;nan;99733.28;6012788;23;20189;-91
2022/12/02 09:45:41;;;;;;;30.38;15.85;;;;;;;5.94;nan;99731.50;6008559;23;20170;-91
2022/12/02 09:48:11;;;;;;;34.53;18.25;;;;;;;5.93;nan;99732.41;5986031;23;20185;-91
2022/12/02 09:50:38;;;;;;;33.72;17.08;;;;;;;5.93;nan;99727.19;5982036;23;20241;-91
2022/12/02 09:53:19;;;;;;;30.90;16.70;;;;;;;5.93;nan;99727.19;6020044;23;20165;-90
2022/12/02 09:55:45;;;;;;;34.80;16.80;;;;;;;5.93;nan;99722.84;6011746;23;20870;-91
2022/12/02 09:58:14;;;;;;;38.50;19.40;;;;;;;5.94;nan;99729.78;6007025;23;20640;-90
2022/12/02 10:00:40;;;;;;;42.38;23.77;;;;;;;5.99;nan;99726.94;6006085;23;20884;-91
2022/12/02 10:03:29;;;;;;;41.00;20.77;;;;;;;5.97;nan;99720.97;6009696;23;20493;-91
2022/12/02 10:05:55;;;;;;;34.75;18.83;;;;;;;5.97;nan;99718.38;6007911;23;20178;-91
2022/12/02 10:08:27;;;;;;;33.40;15.85;;;;;;;5.96;nan;99719.25;6008226;23;20261;-91
2022/12/02 10:10:55;;;;;;;35.67;16.27;;;;;;;5.97;nan;99714.00;6008298;23;20193;-91
2022/12/02 10:13:23;;;;;;;39.50;21.00;;;;;;;5.97;nan;99721.81;6009400;23;20727;-91
2022/12/02 10:15:49;;;;;;;28.63;16.08;;;;;;;5.99;nan;99716.50;5963408;23;20230;-90
2022/12/02 10:18:16;;;;;;;28.05;15.40;;;;;;;6.00;nan;99712.16;5952674;23;20182;-92
2022/12/02 10:20:42;;;;;;;36.20;15.55;;;;;;;5.98;nan;99707.84;5985652;23;20202;-91
2022/12/02 10:23:13;;;;;;;27.40;17.20;;;;;;;5.97;nan;99703.56;5968773;23;20263;-90
2022/12/02 10:25:46;;;;;;;37.08;15.20;;;;;;;5.95;nan;99705.38;5956781;23;20182;-91
2022/12/02 10:28:27;;;;;;;25.60;14.38;;;;;;;5.97;nan;99702.72;5973614;23;20205;-91
2022/12/02 10:31:03;;;;;;;35.88;14.25;;;;;;;5.96;nan;99704.44;5974877;23;20302;-91
2022/12/02 10:33:31;;;;;;;31.85;15.70;;;;;;;5.97;nan;99698.34;5978344;23;20689;-91
2022/12/02 10:36:00;;;;;;;29.25;13.95;;;;;;;5.97;nan;99695.75;5952206;23;20268;-91
2022/12/02 10:38:33;;;;;;;27.90;14.63;;;;;;;5.98;nan;99707.84;5952114;23;20602;-91
2022/12/02 10:41:16;;;;;;;28.30;13.68;;;;;;;5.98;nan;99696.56;5990940;23;20188;-90
2022/12/02 10:44:04;;;;;;;30.55;15.88;;;;;;;5.97;nan;99693.13;6036922;23;20201;-92
2022/12/02 10:46:34;;;;;;;24.02;13.68;;;;;;;5.99;nan;99693.03;6037458;23;20197;-91
2022/12/02 10:49:25;;;;;;;25.60;15.52;;;;;;;6.01;nan;99682.56;6037676;23;20189;-90
2022/12/02 10:51:50;;;;;;;27.55;14.40;;;;;;;6.01;nan;99690.38;6036298;23;20165;-91
2022/12/02 10:54:27;;;;;;;23.73;13.00;;;;;;;6.01;nan;99685.16;6028460;23;20275;-92
2022/12/02 10:56:56;;;;;;;31.70;16.10;;;;;;;6.04;nan;99685.88;6011726;23;20736;-90
2022/12/02 10:59:22;;;;;;;27.10;15.38;;;;;;;6.04;nan;99680.66;6035158;23;20221;-91
2022/12/02 11:01:48;;;;;;;28.05;15.93;;;;;;;6.07;nan;99687.50;6036244;23;20272;-90
2022/12/02 11:04:22;;;;;;;29.80;16.37;;;;;;;6.09;nan;99693.50;6034662;23;20337;-91
2022/12/02 11:06:48;;;;;;;30.17;14.90;;;;;;;6.10;nan;99684.75;6034471;23;20168;-91
2022/12/02 11:09:20;;;;;;;24.90;13.53;;;;;;;6.12;nan;99675.09;6033756;23;20211;-91
2022/12/02 11:11:49;;;;;;;29.40;16.00;;;;;;;6.13;nan;99675.06;6034573;23;20887;-90
2022/12/02 11:14:41;;;;;;;30.40;15.23;;;;;;;6.14;nan;99670.69;6033761;23;20201;-91
2022/12/02 11:17:09;;;;;;;27.95;12.98;;;;;;;6.17;nan;99673.16;6021602;23;20189;-90
2022/12/02 11:19:44;;;;;;;27.58;13.57;;;;;;;6.19;nan;99666.94;6010255;23;20177;-90
2022/12/02 11:22:47;;;;;;;19.05;13.38;;;;;;;6.25;nan;99665.81;5965900;23;20277;-90
2022/12/02 11:25:40;;;;;;;26.63;16.88;;;;;;;6.29;nan;99666.53;6006488;23;20190;-91
2022/12/02 11:28:32;;;;;;;36.10;15.15;;;;;;;6.30;nan;99653.44;6007013;23;20242;-90
2022/12/02 11:31:10;;;;;;;37.30;17.33;;;;;;;6.33;nan;99653.28;6005777;23;20207;-91
2022/12/02 11:33:50;;;;;;;29.92;16.48;;;;;;;6.37;nan;99652.25;6006432;23;20438;-90
2022/12/02 11:36:16;;;;;;;33.35;15.75;;;;;;;6.41;nan;99650.34;5980074;23;20182;-90
2022/12/02 11:39:00;;;;;;;34.55;18.35;;;;;;;6.41;nan;99643.34;6007037;23;20182;-91
2022/12/02 11:41:51;;;;;;;36.78;18.23;;;;;;;6.41;nan;99647.72;6005829;23;20439;-90
2022/12/02 11:44:25;;;;;;;31.17;16.73;;;;;;;6.43;nan;99638.91;6006110;23;20185;-90
2022/12/02 11:46:54;;;;;;;35.08;15.75;;;;;;;6.45;nan;99633.59;6007983;23;20173;-90
2022/12/02 11:49:34;;;;;;;32.55;14.60;;;;;;;6.46;nan;99634.47;6005914;23;20178;-90
2022/12/02 11:52:10;;;;;;;28.33;16.05;;;;;;;6.45;nan;99631.00;6006968;23;20178;-90
2022/12/02 11:54:56;;;;;;;29.73;16.25;;;;;;;6.48;nan;99635.22;5981712;23;20425;-90
2022/12/02 11:57:44;;;;;;;24.30;15.23;;;;;;;6.48;nan;99622.19;6005417;23;20997;-91
2022/12/02 12:00:24;;;;;;;30.80;14.38;;;;;;;6.49;nan;99626.50;6005968;23;20185;-91
2022/12/02 12:03:11;;;;;;;25.63;12.90;;;;;;;6.47;nan;99617.88;5981961;23;20280;-91
2022/12/02 12:05:38;;;;;;;23.58;12.65;;;;;;;6.47;nan;99617.88;6006447;23;20197;-91
2022/12/02 12:08:04;;;;;;;28.48;14.55;;;;;;;6.46;nan;99621.44;6007066;23;20196;-91
2022/12/02 12:10:39;;;;;;;24.30;14.90;;;;;;;6.47;nan;99608.28;6009477;23;20598;-90
2022/12/02 12:13:13;;;;;;;26.95;14.85;;;;;;;6.47;nan;99603.06;6006557;23;20169;-90
2022/12/02 12:16:05;;;;;;;25.88;15.73;;;;;;;6.47;nan;99607.44;5980823;23;20209;-90
2022/12/02 12:18:40;;;;;;;17.48;12.15;;;;;;;6.49;nan;99605.63;5977518;23;20247;-90
2022/12/02 12:21:10;;;;;;;21.48;13.25;;;;;;;6.50;nan;99608.13;6005257;23;20839;-89
2022/12/02 12:23:42;;;;;;;29.02;12.95;;;;;;;6.51;nan;99603.75;6005166;23;20618;-88
2022/12/02 12:26:28;;;;;;;25.90;13.98;;;;;;;6.51;nan;99599.41;6005626;23;20615;-88
2022/12/02 12:28:53;;;;;;;26.13;13.50;;;;;;;6.52;nan;99595.03;6006236;23;20412;-88
2022/12/02 12:31:19;;;;;;;26.63;13.23;;;;;;;6.51;nan;99591.59;6005712;23;20906;-88
2022/12/02 12:33:44;;;;;;;19.13;13.10;;;;;;;6.52;nan;99592.44;6006438;23;20177;-90
2022/12/02 12:36:12;;;;;;;22.60;13.50;;;;;;;6.54;nan;99595.81;6006257;23;20248;-90
2022/12/02 12:38:41;;;;;;;21.05;12.25;;;;;;;6.57;nan;99585.22;6006958;23;20166;-88
2022/12/02 12:41:06;;;;;;;23.60;14.13;;;;;;;6.60;nan;99595.50;6006003;23;20504;-88
2022/12/02 12:43:34;;;;;;;21.08;13.43;;;;;;;6.63;nan;99593.59;6006270;23;20178;-88
2022/12/02 12:45:59;;;;;;;26.40;14.00;;;;;;;6.67;nan;99586.50;5979994;23;20177;-88
2022/12/02 12:48:25;;;;;;;27.80;12.73;;;;;;;6.69;nan;99581.19;6006395;23;20182;-88
2022/12/02 12:50:56;;;;;;;21.07;11.57;;;;;;;6.67;nan;99583.88;6003887;23;20427;-88
2022/12/02 12:53:22;;;;;;;24.77;13.85;;;;;;;6.65;nan;99577.88;6007500;23;20517;-87
2022/12/02 12:55:47;;;;;;;18.30;12.27;;;;;;;6.63;nan;99571.88;6007864;23;20216;-88
2022/12/02 12:58:13;;;;;;;26.23;14.10;;;;;;;6.61;nan;99573.72;6010890;23;20177;-88
2022/12/02 13:00:39;;;;;;;20.90;13.07;;;;;;;6.61;nan;99573.72;5983699;23;20193;-88
2022/12/02 13:03:25;;;;;;;24.83;13.73;;;;;;;6.61;nan;99565.88;6014222;23;20185;-91
2022/12/02 13:05:53;;;;;;;23.15;12.98;;;;;;;6.59;nan;99559.91;5997203;23;20422;-91
2022/12/02 13:08:19;;;;;;;17.08;9.73;;;;;;;6.56;nan;99560.91;6015911;23;20362;-91
2022/12/02 13:10:45;;;;;;;23.88;13.15;;;;;;;6.54;nan;99560.13;5988865;23;20257;-90
2022/12/02 13:13:11;;;;;;;21.17;13.47;;;;;;;6.53;nan;99566.25;6014207;23;20556;-89
2022/12/02 13:15:36;;;;;;;19.57;10.97;;;;;;;6.50;nan;99558.56;6023456;23;20214;-90
2022/12/02 13:18:02;;;;;;;24.00;12.93;;;;;;;6.48;nan;99555.22;6009693;23;20465;-90
2022/12/02 13:20:35;;;;;;;30.48;13.07;;;;;;;6.47;nan;99553.50;6011326;23;20301;-91
2022/12/02 13:23:01;;;;;;;21.63;13.98;;;;;;;6.47;nan;99552.66;6009357;23;20178;-91
2022/12/02 13:25:35;;;;;;;26.27;14.50;;;;;;;6.45;nan;99549.25;6009393;23;20245;-90
2022/12/02 13:28:12;;;;;;;24.42;12.73;;;;;;;6.44;nan;99551.03;6010794;23;20510;-90
2022/12/02 13:30:38;;;;;;;24.02;12.55;;;;;;;6.46;nan;99548.38;5985885;23;20177;-91
2022/12/02 13:33:04;;;;;;;23.93;13.40;;;;;;;6.46;nan;99553.59;6011191;23;20229;-90
2022/12/02 13:35:29;;;;;;;21.70;12.73;;;;;;;6.44;nan;99548.44;6010271;23;21027;-91
2022/12/02 13:37:57;;;;;;;25.33;14.47;;;;;;;6.42;nan;99548.47;5984309;23;20722;-91
2022/12/02 13:40:23;;;;;;;27.77;15.48;;;;;;;6.37;nan;99545.28;6009418;23;20197;-90
2022/12/02 13:42:49;;;;;;;31.30;13.90;;;;;;;6.33;nan;99548.94;6012979;23;20181;-91
2022/12/02 13:45:14;;;;;;;28.90;14.63;;;;;;;6.31;nan;99545.53;5985891;23;20186;-91
2022/12/02 13:47:40;;;;;;;32.00;14.20;;;;;;;6.26;nan;99542.31;6009542;23;20182;-91
2022/12/02 13:50:18;;;;;;;29.23;16.23;;;;;;;6.24;nan;99544.16;5985285;23;20181;-91
2022/12/02 13:52:53;;;;;;;26.35;14.55;;;;;;;6.21;nan;99544.28;6011364;23;20185;-91
2022/12/02 13:55:21;;;;;;;26.50;16.58;;;;;;;6.20;nan;99538.22;6013281;23;20353;-90
2022/12/02 13:57:47;;;;;;;24.10;14.95;;;;;;;6.22;nan;99539.94;6010729;23;20240;-92
2022/12/02 14:00:14;;;;;;;31.00;15.33;;;;;;;6.26;nan;99533.63;6011890;23;20210;-91
2022/12/02 14:02:42;;;;;;;29.77;15.40;;;;;;;6.30;nan;99533.44;6013056;23;20198;-91
2022/12/02 14:05:08;;;;;;;31.90;20.00;;;;;;;6.34;nan;99529.75;6010571;23;20826;-91
2022/12/02 14:07:36;;;;;;;34.80;17.40;;;;;;;6.33;nan;99522.84;6011709;23;20197;-91
2022/12/02 14:10:05;;;;;;;31.42;16.98;;;;;;;6.32;nan;99529.00;6014538;23;20193;-91
2022/12/02 14:12:33;;;;;;;28.58;14.65;;;;;;;6.33;nan;99525.47;6011661;23;20188;-92
2022/12/02 14:15:01;;;;;;;28.55;14.73;;;;;;;6.33;nan;99520.25;6012029;23;20815;-91
2022/12/02 14:17:38;;;;;;;35.95;17.13;;;;;;;6.35;nan;99526.22;6014832;23;20190;-92
2022/12/02 14:20:07;;;;;;;32.05;14.77;;;;;;;6.36;nan;99527.91;6029659;23;20161;-92
2022/12/02 14:22:35;;;;;;;28.27;17.65;;;;;;;6.37;nan;99527.00;6028464;23;20508;-92
2022/12/02 14:25:02;;;;;;;28.52;18.52;;;;;;;6.35;nan;99536.66;6027085;23;20182;-92
2022/12/02 14:27:33;;;;;;;28.58;15.35;;;;;;;6.29;nan;99528.28;6013555;23;20181;-92
2022/12/02 14:30:01;;;;;;;30.70;14.32;;;;;;;6.25;nan;99527.59;5983754;23;20189;-92
2022/12/02 14:32:32;;;;;;;35.90;19.02;;;;;;;6.25;nan;99527.59;5987833;23;20533;-92
2022/12/02 14:34:58;;;;;;;28.33;16.40;;;;;;;6.24;nan;99523.28;6014854;23;20195;-92
2022/12/02 14:37:29;;;;;;;26.50;17.00;;;;;;;6.19;nan;99520.91;5989913;23;20193;-93
2022/12/02 14:39:58;;;;;;;29.65;18.52;;;;;;;6.20;nan;99525.19;5986285;23;20181;-92
2022/12/02 14:42:26;;;;;;;32.17;16.33;;;;;;;6.21;nan;99531.25;6010409;23;20189;-91
2022/12/02 14:44:51;;;;;;;27.83;16.40;;;;;;;6.24;nan;99528.50;6011191;23;20198;-91
2022/12/02 14:47:17;;;;;;;23.13;13.10;;;;;;;6.29;nan;99526.53;6008457;23;20201;-91
2022/12/02 14:49:44;;;;;;;25.07;13.67;;;;;;;6.35;nan;99526.22;6009167;23;20182;-89
2022/12/02 14:52:11;;;;;;;27.02;15.35;;;;;;;6.40;nan;99519.03;5983634;23;20638;-91
2022/12/02 14:54:37;;;;;;;31.38;23.85;;;;;;;6.42;nan;99526.78;5981427;23;20261;-91
2022/12/02 14:57:03;;;;;;;30.65;14.68;;;;;;;6.37;nan;99524.41;6007774;23;20218;-91
2022/12/02 14:59:29;;;;;;;23.30;14.52;;;;;;;6.34;nan;99521.91;6006102;23;20242;-91
2022/12/02 15:01:55;;;;;;;26.33;15.87;;;;;;;6.33;nan;99517.63;5981926;23;20778;-92
2022/12/02 15:04:20;;;;;;;27.45;13.48;;;;;;;6.31;nan;99522.06;5983154;23;20193;-90
2022/12/02 15:06:46;;;;;;;20.70;12.87;;;;;;;6.31;nan;99521.22;6008572;23;20181;-91
2022/12/02 15:09:12;;;;;;;22.97;12.67;;;;;;;6.32;nan;99521.16;6008058;23;20669;-91
2022/12/02 15:11:43;;;;;;;27.40;14.63;;;;;;;6.36;nan;99522.69;6006723;23;20189;-92
2022/12/02 15:14:11;;;;;;;23.65;14.35;;;;;;;6.40;nan;99521.66;6005442;23;20206;-91
2022/12/02 15:16:37;;;;;;;27.00;16.10;;;;;;;6.42;nan;99524.16;6006076;23;20304;-91
2022/12/02 15:19:03;;;;;;;26.60;15.00;;;;;;;6.40;nan;99524.25;6004690;23;20677;-92
2022/12/02 15:21:28;;;;;;;26.00;16.60;;;;;;;6.35;nan;99520.19;5979749;23;20293;-92
2022/12/02 15:23:54;;;;;;;28.80;14.23;;;;;;;6.31;nan;99524.69;6008826;23;20178;-92
2022/12/02 15:26:22;;;;;;;27.13;16.73;;;;;;;6.24;nan;99520.69;6005278;23;20704;-91
2022/12/02 15:28:48;;;;;;;27.25;12.68;;;;;;;6.20;nan;99514.75;6008522;23;20185;-92
2022/12/02 15:31:16;;;;;;;29.40;15.77;;;;;;;6.19;nan;99523.50;6007845;23;20269;-91
2022/12/02 15:33:42;;;;;;;29.57;16.40;;;;;;;6.18;nan;99520.94;6005419;23;20496;-92
2022/12/02 15:36:07;;;;;;;28.67;16.43;;;;;;;6.13;nan;99520.31;5985983;23;20437;-90
2022/12/02 15:38:33;;;;;;;33.13;15.37;;;;;;;6.13;nan;99525.53;6008682;23;20177;-90
2022/12/02 15:40:59;;;;;;;29.37;15.90;;;;;;;6.18;nan;99519.22;6011024;23;20267;-90
2022/12/02 15:43:24;;;;;;;25.75;17.17;;;;;;;6.25;nan;99519.75;6008951;23;20185;-89
2022/12/02 15:45:50;;;;;;;26.50;15.87;;;;;;;6.32;nan;99523.78;6005891;23;20588;-90
2022/12/02 15:48:16;;;;;;;21.83;14.10;;;;;;;6.35;nan;99523.63;5985433;23;20177;-90
2022/12/02 15:50:41;;;;;;;26.50;13.37;;;;;;;6.42;nan;99526.78;6009830;23;20215;-89
2022/12/02 15:53:10;;;;;;;20.65;12.27;;;;;;;6.47;nan;99526.56;6008935;23;20433;-89
2022/12/02 15:55:41;;;;;;;24.53;14.10;;;;;;;6.51;nan;99523.75;6009613;23;20252;-92
2022/12/02 15:58:59;;;;;;;;;;;;;;;;;;;;;
2022/12/02 16:10:13;;;;;;;20.20;14.63;;;;;;;6.67;nan;99529.06;5922191;24;20320;-92
2022/12/02 16:12:44;;;;;;;18.45;12.48;;;;;;;6.72;nan;99526.22;5902383;24;20184;-91
2022/12/02 16:15:28;;;;;;;27.88;12.88;;;;;;;6.77;nan;99527.66;5955730;23;20641;-91
